sensor_id;sensor_type;location;lat;lon;timestamp;temperature;humidity
34201;DHT22;20469;55.638;37.670;2023-04-25T00:01:05;14.00;1.00
34201;DHT22;20469;55.638;37.670;2023-04-25T00:03:33;14.10;1.00
34201;DHT22;20469;55.638;37.670;2023-04-25T00:06:00;14.90;1.00
34201;DHT22;20469;55.638;37.670;2023-04-25T00:08:30;15.20;1.00
34201;DHT22;20469;55.638;37.670;2023-04-25T00:10:58;14.60;1.00
34201;DHT22;20469;55.638;37.670;2023-04-25T00:13:26;15.20;1.00
34201;DHT22;20469;55.638;37.670;2023-04-25T00:15:53;14.90;1.00
34201;DHT22;20469;55.638;37.670;2023-04-25T00:18:21;14.60;1.00
34201;DHT22;20469;55.638;37.670;2023-04-25T00:20:48;14.40;1.00
34201;DHT22;20469;55.638;37.670;2023-04-25T00:23:16;14.60;1.00
34201;DHT22;20469;55.638;37.670;2023-04-25T00:25:48;14.30;1.00
34201;DHT22;20469;55.638;37.670;2023-04-25T00:28:16;14.50;1.00
34201;DHT22;20469;55.638;37.670;2023-04-25T00:30:43;14.20;1.00
34201;DHT22;20469;55.638;37.670;2023-04-25T00:33:10;13.90;1.00
34201;DHT22;20469;55.638;37.670;2023-04-25T00:35:38;13.80;1.00
34201;DHT22;20469;55.638;37.670;2023-04-25T00:38:05;13.60;1.00
34201;DHT22;20469;55.638;37.670;2023-04-25T00:40:32;13.90;1.00
34201;DHT22;20469;55.638;37.670;2023-04-25T00:43:00;13.70;1.00
34201;DHT22;20469;55.638;37.670;2023-04-25T00:45:28;13.80;1.00
34201;DHT22;20469;55.638;37.670;2023-04-25T00:47:59;13.60;1.00
34201;DHT22;20469;55.638;37.670;2023-04-25T00:50:26;14.10;1.00
34201;DHT22;20469;55.638;37.670;2023-04-25T00:52:54;13.60;1.00
34201;DHT22;20469;55.638;37.670;2023-04-25T00:55:21;13.60;1.00
34201;DHT22;20469;55.638;37.670;2023-04-25T00:57:49;13.50;1.00
34201;DHT22;20469;55.638;37.670;2023-04-25T01:00:17;13.60;1.00
34201;DHT22;20469;55.638;37.670;2023-04-25T01:02:44;14.10;1.00
34201;DHT22;20469;55.638;37.670;2023-04-25T01:05:12;14.30;1.00
34201;DHT22;20469;55.638;37.670;2023-04-25T01:07:40;13.80;1.00
34201;DHT22;20469;55.638;37.670;2023-04-25T01:10:08;14.00;1.00
34201;DHT22;20469;55.638;37.670;2023-04-25T01:12:35;13.50;1.00
34201;DHT22;20469;55.638;37.670;2023-04-25T01:15:03;13.50;1.00
34201;DHT22;20469;55.638;37.670;2023-04-25T01:17:31;13.40;1.00
34201;DHT22;20469;55.638;37.670;2023-04-25T01:19:58;13.60;1.00
34201;DHT22;20469;55.638;37.670;2023-04-25T01:22:26;13.40;1.00
34201;DHT22;20469;55.638;37.670;2023-04-25T01:24:53;13.70;1.00
34201;DHT22;20469;55.638;37.670;2023-04-25T01:27:21;13.60;1.00
34201;DHT22;20469;55.638;37.670;2023-04-25T01:29:50;13.70;1.00
34201;DHT22;20469;55.638;37.670;2023-04-25T01:32:17;13.80;1.00
34201;DHT22;20469;55.638;37.670;2023-04-25T01:34:45;13.50;1.00
34201;DHT22;20469;55.638;37.670;2023-04-25T01:37:12;13.60;1.00
34201;DHT22;20469;55.638;37.670;2023-04-25T01:39:39;13.80;1.00
34201;DHT22;20469;55.638;37.670;2023-04-25T01:42:07;14.30;1.00
34201;DHT22;20469;55.638;37.670;2023-04-25T01:44:34;13.70;1.00
34201;DHT22;20469;55.638;37.670;2023-04-25T01:47:01;13.90;1.00
34201;DHT22;20469;55.638;37.670;2023-04-25T01:49:28;13.70;1.00
34201;DHT22;20469;55.638;37.670;2023-04-25T01:51:56;14.20;1.00
34201;DHT22;20469;55.638;37.670;2023-04-25T01:54:23;13.60;1.00
34201;DHT22;20469;55.638;37.670;2023-04-25T01:56:51;13.40;1.00
34201;DHT22;20469;55.638;37.670;2023-04-25T01:59:19;13.30;1.00
34201;DHT22;20469;55.638;37.670;2023-04-25T02:01:47;13.20;1.00
34201;DHT22;20469;55.638;37.670;2023-04-25T02:04:14;13.10;1.00
34201;DHT22;20469;55.638;37.670;2023-04-25T02:06:41;13.00;1.00
34201;DHT22;20469;55.638;37.670;2023-04-25T02:09:09;13.10;1.00
34201;DHT22;20469;55.638;37.670;2023-04-25T02:11:36;13.10;1.00
34201;DHT22;20469;55.638;37.670;2023-04-25T02:14:03;13.20;1.00
34201;DHT22;20469;55.638;37.670;2023-04-25T02:16:30;13.40;1.00
34201;DHT22;20469;55.638;37.670;2023-04-25T02:18:58;13.20;1.00
34201;DHT22;20469;55.638;37.670;2023-04-25T02:21:25;13.40;1.00
34201;DHT22;20469;55.638;37.670;2023-04-25T02:23:53;13.50;1.00
34201;DHT22;20469;55.638;37.670;2023-04-25T02:26:20;13.70;1.00
34201;DHT22;20469;55.638;37.670;2023-04-25T02:28:48;13.70;1.00
34201;DHT22;20469;55.638;37.670;2023-04-25T02:31:15;13.70;1.00
34201;DHT22;20469;55.638;37.670;2023-04-25T02:33:43;14.10;1.00
34201;DHT22;20469;55.638;37.670;2023-04-25T02:36:10;13.60;1.00
34201;DHT22;20469;55.638;37.670;2023-04-25T02:38:38;13.50;1.00
34201;DHT22;20469;55.638;37.670;2023-04-25T02:41:05;13.60;1.00
34201;DHT22;20469;55.638;37.670;2023-04-25T02:43:32;13.80;1.00
34201;DHT22;20469;55.638;37.670;2023-04-25T02:45:59;14.10;1.00
34201;DHT22;20469;55.638;37.670;2023-04-25T02:48:27;13.80;1.00
34201;DHT22;20469;55.638;37.670;2023-04-25T02:50:55;14.00;1.00
34201;DHT22;20469;55.638;37.670;2023-04-25T02:53:22;14.20;1.00
34201;DHT22;20469;55.638;37.670;2023-04-25T02:55:49;14.00;1.00
34201;DHT22;20469;55.638;37.670;2023-04-25T02:58:16;13.50;1.00
34201;DHT22;20469;55.638;37.670;2023-04-25T03:00:44;13.50;1.00
34201;DHT22;20469;55.638;37.670;2023-04-25T03:03:11;13.50;1.00
34201;DHT22;20469;55.638;37.670;2023-04-25T03:05:38;13.50;1.00
34201;DHT22;20469;55.638;37.670;2023-04-25T03:08:05;13.40;1.00
34201;DHT22;20469;55.638;37.670;2023-04-25T03:10:32;13.10;1.00
34201;DHT22;20469;55.638;37.670;2023-04-25T03:13:00;13.30;1.00
34201;DHT22;20469;55.638;37.670;2023-04-25T03:15:27;13.50;1.00
34201;DHT22;20469;55.638;37.670;2023-04-25T03:17:54;13.40;1.00
34201;DHT22;20469;55.638;37.670;2023-04-25T03:20:21;13.30;1.00
34201;DHT22;20469;55.638;37.670;2023-04-25T03:22:48;13.20;1.00
34201;DHT22;20469;55.638;37.670;2023-04-25T03:25:15;13.20;1.00
34201;DHT22;20469;55.638;37.670;2023-04-25T03:27:42;13.20;1.00
34201;DHT22;20469;55.638;37.670;2023-04-25T03:30:10;13.40;1.00
34201;DHT22;20469;55.638;37.670;2023-04-25T03:32:37;13.50;1.00
34201;DHT22;20469;55.638;37.670;2023-04-25T03:35:05;13.20;1.00
34201;DHT22;20469;55.638;37.670;2023-04-25T03:37:32;13.10;1.00
34201;DHT22;20469;55.638;37.670;2023-04-25T03:39:59;13.20;1.00
34201;DHT22;20469;55.638;37.670;2023-04-25T03:42:26;13.20;1.00
34201;DHT22;20469;55.638;37.670;2023-04-25T03:44:54;13.30;1.00
34201;DHT22;20469;55.638;37.670;2023-04-25T03:47:21;13.40;1.00
34201;DHT22;20469;55.638;37.670;2023-04-25T03:49:48;13.50;1.00
34201;DHT22;20469;55.638;37.670;2023-04-25T03:52:18;13.30;1.00
34201;DHT22;20469;55.638;37.670;2023-04-25T03:54:45;13.30;1.00
34201;DHT22;20469;55.638;37.670;2023-04-25T03:57:13;13.20;1.00
34201;DHT22;20469;55.638;37.670;2023-04-25T03:59:40;13.30;1.00
34201;DHT22;20469;55.638;37.670;2023-04-25T04:02:07;13.20;1.00
34201;DHT22;20469;55.638;37.670;2023-04-25T04:04:34;13.50;1.00
34201;DHT22;20469;55.638;37.670;2023-04-25T04:07:02;13.80;1.00
34201;DHT22;20469;55.638;37.670;2023-04-25T04:09:30;14.40;1.00
34201;DHT22;20469;55.638;37.670;2023-04-25T04:11:57;13.60;1.00
34201;DHT22;20469;55.638;37.670;2023-04-25T04:14:24;13.70;1.00
34201;DHT22;20469;55.638;37.670;2023-04-25T04:16:51;13.80;1.00
34201;DHT22;20469;55.638;37.670;2023-04-25T04:19:19;13.60;1.00
34201;DHT22;20469;55.638;37.670;2023-04-25T04:21:47;13.70;1.00
34201;DHT22;20469;55.638;37.670;2023-04-25T04:24:14;13.40;1.00
34201;DHT22;20469;55.638;37.670;2023-04-25T04:26:43;13.60;1.00
34201;DHT22;20469;55.638;37.670;2023-04-25T04:29:11;13.60;1.00
34201;DHT22;20469;55.638;37.670;2023-04-25T04:31:39;14.00;1.00
34201;DHT22;20469;55.638;37.670;2023-04-25T04:34:07;13.80;1.00
34201;DHT22;20469;55.638;37.670;2023-04-25T04:36:34;13.80;1.00
34201;DHT22;20469;55.638;37.670;2023-04-25T04:39:01;14.30;1.00
34201;DHT22;20469;55.638;37.670;2023-04-25T04:41:30;13.70;1.00
34201;DHT22;20469;55.638;37.670;2023-04-25T04:43:57;14.30;1.00
34201;DHT22;20469;55.638;37.670;2023-04-25T04:46:24;14.80;1.00
34201;DHT22;20469;55.638;37.670;2023-04-25T04:49:10;14.70;1.00
34201;DHT22;20469;55.638;37.670;2023-04-25T04:51:38;14.90;1.00
34201;DHT22;20469;55.638;37.670;2023-04-25T04:54:05;14.80;1.00
34201;DHT22;20469;55.638;37.670;2023-04-25T04:56:32;15.10;1.00
34201;DHT22;20469;55.638;37.670;2023-04-25T04:58:59;15.50;1.00
34201;DHT22;20469;55.638;37.670;2023-04-25T05:01:28;15.60;1.00
34201;DHT22;20469;55.638;37.670;2023-04-25T05:03:57;15.60;1.00
34201;DHT22;20469;55.638;37.670;2023-04-25T05:06:28;15.60;1.00
34201;DHT22;20469;55.638;37.670;2023-04-25T05:08:57;15.50;1.00
34201;DHT22;20469;55.638;37.670;2023-04-25T05:11:24;15.90;1.00
34201;DHT22;20469;55.638;37.670;2023-04-25T05:13:52;16.20;1.00
34201;DHT22;20469;55.638;37.670;2023-04-25T05:16:20;16.30;1.00
34201;DHT22;20469;55.638;37.670;2023-04-25T05:18:47;15.80;1.00
34201;DHT22;20469;55.638;37.670;2023-04-25T05:21:15;16.20;1.00
34201;DHT22;20469;55.638;37.670;2023-04-25T05:23:42;16.20;1.00
34201;DHT22;20469;55.638;37.670;2023-04-25T05:26:09;16.70;1.00
34201;DHT22;20469;55.638;37.670;2023-04-25T05:28:41;16.70;1.00
34201;DHT22;20469;55.638;37.670;2023-04-25T05:31:12;16.70;1.00
34201;DHT22;20469;55.638;37.670;2023-04-25T05:33:39;16.70;1.00
34201;DHT22;20469;55.638;37.670;2023-04-25T05:36:07;17.30;1.00
34201;DHT22;20469;55.638;37.670;2023-04-25T05:38:37;17.30;1.00
34201;DHT22;20469;55.638;37.670;2023-04-25T05:41:04;16.70;1.00
34201;DHT22;20469;55.638;37.670;2023-04-25T05:43:31;17.40;1.00
34201;DHT22;20469;55.638;37.670;2023-04-25T05:45:59;16.50;1.00
34201;DHT22;20469;55.638;37.670;2023-04-25T05:48:26;16.10;1.00
34201;DHT22;20469;55.638;37.670;2023-04-25T05:50:53;16.00;1.00
34201;DHT22;20469;55.638;37.670;2023-04-25T05:53:21;16.30;1.00
34201;DHT22;20469;55.638;37.670;2023-04-25T05:56:07;16.50;1.00
34201;DHT22;20469;55.638;37.670;2023-04-25T05:58:34;16.80;1.00
34201;DHT22;20469;55.638;37.670;2023-04-25T06:01:02;17.60;1.00
34201;DHT22;20469;55.638;37.670;2023-04-25T06:03:29;16.80;1.00
34201;DHT22;20469;55.638;37.670;2023-04-25T06:05:57;17.60;1.00
34201;DHT22;20469;55.638;37.670;2023-04-25T06:08:24;17.50;1.00
34201;DHT22;20469;55.638;37.670;2023-04-25T06:10:52;17.80;1.00
34201;DHT22;20469;55.638;37.670;2023-04-25T06:13:19;17.90;1.00
34201;DHT22;20469;55.638;37.670;2023-04-25T06:15:46;17.70;1.00
34201;DHT22;20469;55.638;37.670;2023-04-25T06:18:13;18.60;1.00
34201;DHT22;20469;55.638;37.670;2023-04-25T06:20:41;18.50;1.00
34201;DHT22;20469;55.638;37.670;2023-04-25T06:23:08;18.00;1.00
34201;DHT22;20469;55.638;37.670;2023-04-25T06:25:35;18.00;1.00
34201;DHT22;20469;55.638;37.670;2023-04-25T06:28:02;17.40;1.00
34201;DHT22;20469;55.638;37.670;2023-04-25T06:30:29;17.70;1.00
34201;DHT22;20469;55.638;37.670;2023-04-25T06:32:56;17.60;1.00
34201;DHT22;20469;55.638;37.670;2023-04-25T06:35:24;17.80;1.00
34201;DHT22;20469;55.638;37.670;2023-04-25T06:37:51;17.50;1.00
34201;DHT22;20469;55.638;37.670;2023-04-25T06:40:18;17.80;1.00
34201;DHT22;20469;55.638;37.670;2023-04-25T06:42:46;18.20;1.00
34201;DHT22;20469;55.638;37.670;2023-04-25T06:45:13;18.40;1.00
34201;DHT22;20469;55.638;37.670;2023-04-25T06:47:40;19.20;1.00
34201;DHT22;20469;55.638;37.670;2023-04-25T06:50:07;18.20;1.00
34201;DHT22;20469;55.638;37.670;2023-04-25T06:52:35;19.20;1.00
34201;DHT22;20469;55.638;37.670;2023-04-25T06:55:02;20.10;1.00
34201;DHT22;20469;55.638;37.670;2023-04-25T06:57:30;19.40;1.00
34201;DHT22;20469;55.638;37.670;2023-04-25T06:59:57;19.50;1.00
34201;DHT22;20469;55.638;37.670;2023-04-25T07:02:27;18.60;1.00
34201;DHT22;20469;55.638;37.670;2023-04-25T07:04:55;18.40;1.00
34201;DHT22;20469;55.638;37.670;2023-04-25T07:07:27;19.20;1.00
34201;DHT22;20469;55.638;37.670;2023-04-25T07:09:54;19.20;1.00
34201;DHT22;20469;55.638;37.670;2023-04-25T07:12:21;19.40;1.00
34201;DHT22;20469;55.638;37.670;2023-04-25T07:14:48;19.10;1.00
34201;DHT22;20469;55.638;37.670;2023-04-25T07:17:16;18.80;1.00
34201;DHT22;20469;55.638;37.670;2023-04-25T07:19:43;19.00;1.00
34201;DHT22;20469;55.638;37.670;2023-04-25T07:22:10;19.80;1.00
34201;DHT22;20469;55.638;37.670;2023-04-25T07:24:37;19.70;1.00
34201;DHT22;20469;55.638;37.670;2023-04-25T07:27:05;19.10;1.00
34201;DHT22;20469;55.638;37.670;2023-04-25T07:29:32;19.10;1.00
34201;DHT22;20469;55.638;37.670;2023-04-25T07:32:03;19.10;1.00
34201;DHT22;20469;55.638;37.670;2023-04-25T07:34:31;19.30;1.00
34201;DHT22;20469;55.638;37.670;2023-04-25T07:36:58;19.30;1.00
34201;DHT22;20469;55.638;37.670;2023-04-25T07:39:26;18.70;1.00
34201;DHT22;20469;55.638;37.670;2023-04-25T07:41:53;18.50;1.00
34201;DHT22;20469;55.638;37.670;2023-04-25T07:44:21;18.90;1.00
34201;DHT22;20469;55.638;37.670;2023-04-25T07:46:48;19.10;1.00
34201;DHT22;20469;55.638;37.670;2023-04-25T07:49:15;19.20;1.00
34201;DHT22;20469;55.638;37.670;2023-04-25T07:51:43;19.30;1.00
34201;DHT22;20469;55.638;37.670;2023-04-25T07:54:13;19.70;1.00
34201;DHT22;20469;55.638;37.670;2023-04-25T07:56:40;19.70;1.00
34201;DHT22;20469;55.638;37.670;2023-04-25T07:59:19;19.90;1.00
34201;DHT22;20469;55.638;37.670;2023-04-25T08:01:46;19.30;1.00
34201;DHT22;20469;55.638;37.670;2023-04-25T08:04:13;19.50;1.00
34201;DHT22;20469;55.638;37.670;2023-04-25T08:06:41;19.60;1.00
34201;DHT22;20469;55.638;37.670;2023-04-25T08:09:08;19.80;1.00
34201;DHT22;20469;55.638;37.670;2023-04-25T08:11:38;20.00;1.00
34201;DHT22;20469;55.638;37.670;2023-04-25T08:14:06;20.50;1.00
34201;DHT22;20469;55.638;37.670;2023-04-25T08:16:33;20.50;1.00
34201;DHT22;20469;55.638;37.670;2023-04-25T08:19:00;19.90;1.00
34201;DHT22;20469;55.638;37.670;2023-04-25T08:21:28;21.10;1.00
34201;DHT22;20469;55.638;37.670;2023-04-25T08:23:55;20.80;1.00
34201;DHT22;20469;55.638;37.670;2023-04-25T08:26:24;24.40;1.00
34201;DHT22;20469;55.638;37.670;2023-04-25T08:28:52;22.40;1.00
34201;DHT22;20469;55.638;37.670;2023-04-25T08:31:19;21.40;1.00
34201;DHT22;20469;55.638;37.670;2023-04-25T08:33:47;22.80;1.00
34201;DHT22;20469;55.638;37.670;2023-04-25T08:36:16;23.40;1.00
34201;DHT22;20469;55.638;37.670;2023-04-25T08:39:04;23.90;1.00
34201;DHT22;20469;55.638;37.670;2023-04-25T08:41:31;26.00;1.00
34201;DHT22;20469;55.638;37.670;2023-04-25T08:43:59;25.30;1.00
34201;DHT22;20469;55.638;37.670;2023-04-25T08:46:28;21.40;1.00
34201;DHT22;20469;55.638;37.670;2023-04-25T08:49:01;21.00;1.00
34201;DHT22;20469;55.638;37.670;2023-04-25T08:51:31;20.60;1.00
34201;DHT22;20469;55.638;37.670;2023-04-25T08:54:10;20.00;1.00
34201;DHT22;20469;55.638;37.670;2023-04-25T08:57:02;20.40;1.00
34201;DHT22;20469;55.638;37.670;2023-04-25T08:59:31;19.60;1.00
34201;DHT22;20469;55.638;37.670;2023-04-25T09:01:58;19.90;1.00
34201;DHT22;20469;55.638;37.670;2023-04-25T09:04:33;21.70;1.00
34201;DHT22;20469;55.638;37.670;2023-04-25T09:07:00;20.90;1.00
34201;DHT22;20469;55.638;37.670;2023-04-25T09:09:29;22.30;1.00
34201;DHT22;20469;55.638;37.670;2023-04-25T09:11:56;21.50;1.00
34201;DHT22;20469;55.638;37.670;2023-04-25T09:14:24;21.00;1.00
34201;DHT22;20469;55.638;37.670;2023-04-25T09:19:28;22.80;1.00
34201;DHT22;20469;55.638;37.670;2023-04-25T09:22:06;21.70;1.00
34201;DHT22;20469;55.638;37.670;2023-04-25T09:24:41;21.80;1.00
34201;DHT22;20469;55.638;37.670;2023-04-25T09:27:12;24.00;1.00
34201;DHT22;20469;55.638;37.670;2023-04-25T09:29:40;23.10;1.00
34201;DHT22;20469;55.638;37.670;2023-04-25T09:32:15;23.10;1.00
34201;DHT22;20469;55.638;37.670;2023-04-25T09:34:44;21.90;1.00
34201;DHT22;20469;55.638;37.670;2023-04-25T09:37:12;21.30;1.00
34201;DHT22;20469;55.638;37.670;2023-04-25T09:39:39;22.80;1.00
34201;DHT22;20469;55.638;37.670;2023-04-25T09:42:07;23.60;1.00
34201;DHT22;20469;55.638;37.670;2023-04-25T09:44:36;24.10;1.00
34201;DHT22;20469;55.638;37.670;2023-04-25T09:47:03;23.70;1.00
34201;DHT22;20469;55.638;37.670;2023-04-25T09:49:30;23.30;1.00
34201;DHT22;20469;55.638;37.670;2023-04-25T09:51:58;23.60;1.00
34201;DHT22;20469;55.638;37.670;2023-04-25T09:54:26;22.30;1.00
34201;DHT22;20469;55.638;37.670;2023-04-25T09:56:53;20.50;1.00
34201;DHT22;20469;55.638;37.670;2023-04-25T09:59:22;21.30;1.00
34201;DHT22;20469;55.638;37.670;2023-04-25T10:01:52;21.80;1.00
34201;DHT22;20469;55.638;37.670;2023-04-25T10:04:24;21.30;1.00
34201;DHT22;20469;55.638;37.670;2023-04-25T10:06:56;21.70;1.00
34201;DHT22;20469;55.638;37.670;2023-04-25T10:09:25;23.00;1.00
34201;DHT22;20469;55.638;37.670;2023-04-25T10:11:53;22.90;1.00
34201;DHT22;20469;55.638;37.670;2023-04-25T10:14:21;23.30;1.00
34201;DHT22;20469;55.638;37.670;2023-04-25T10:16:49;24.30;1.00
34201;DHT22;20469;55.638;37.670;2023-04-25T10:19:16;24.60;1.00
34201;DHT22;20469;55.638;37.670;2023-04-25T10:21:51;25.40;1.00
34201;DHT22;20469;55.638;37.670;2023-04-25T10:24:20;22.80;1.00
34201;DHT22;20469;55.638;37.670;2023-04-25T10:26:48;22.50;1.00
34201;DHT22;20469;55.638;37.670;2023-04-25T10:29:24;20.30;1.00
34201;DHT22;20469;55.638;37.670;2023-04-25T10:31:51;23.30;1.00
34201;DHT22;20469;55.638;37.670;2023-04-25T10:34:19;24.70;1.00
34201;DHT22;20469;55.638;37.670;2023-04-25T10:36:53;24.50;1.00
34201;DHT22;20469;55.638;37.670;2023-04-25T10:39:24;22.70;1.00
34201;DHT22;20469;55.638;37.670;2023-04-25T10:41:57;22.60;1.00
34201;DHT22;20469;55.638;37.670;2023-04-25T10:44:28;21.10;1.00
34201;DHT22;20469;55.638;37.670;2023-04-25T10:46:57;22.50;1.00
34201;DHT22;20469;55.638;37.670;2023-04-25T10:49:31;24.20;1.00
34201;DHT22;20469;55.638;37.670;2023-04-25T10:54:55;23.80;1.00
34201;DHT22;20469;55.638;37.670;2023-04-25T11:05:19;24.30;1.00
34201;DHT22;20469;55.638;37.670;2023-04-25T11:07:54;20.70;1.00
34201;DHT22;20469;55.638;37.670;2023-04-25T11:10:28;20.20;1.00
34201;DHT22;20469;55.638;37.670;2023-04-25T11:13:00;19.80;1.00
34201;DHT22;20469;55.638;37.670;2023-04-25T11:15:27;19.60;1.00
34201;DHT22;20469;55.638;37.670;2023-04-25T11:17:55;20.30;1.00
34201;DHT22;20469;55.638;37.670;2023-04-25T11:20:25;19.90;1.00
34201;DHT22;20469;55.638;37.670;2023-04-25T11:22:53;19.40;1.00
34201;DHT22;20469;55.638;37.670;2023-04-25T11:25:23;19.60;1.00
34201;DHT22;20469;55.638;37.670;2023-04-25T11:27:58;19.70;1.00
34201;DHT22;20469;55.638;37.670;2023-04-25T11:30:26;19.70;1.00
34201;DHT22;20469;55.638;37.670;2023-04-25T11:32:53;20.10;1.00
34201;DHT22;20469;55.638;37.670;2023-04-25T11:35:20;20.00;1.00
34201;DHT22;20469;55.638;37.670;2023-04-25T11:37:50;19.60;1.00
34201;DHT22;20469;55.638;37.670;2023-04-25T11:40:17;19.40;1.00
34201;DHT22;20469;55.638;37.670;2023-04-25T11:42:46;19.60;1.00
34201;DHT22;20469;55.638;37.670;2023-04-25T11:45:14;19.10;1.00
34201;DHT22;20469;55.638;37.670;2023-04-25T11:47:42;19.30;1.00
34201;DHT22;20469;55.638;37.670;2023-04-25T11:50:10;19.30;1.00
34201;DHT22;20469;55.638;37.670;2023-04-25T11:52:42;19.40;1.00
34201;DHT22;20469;55.638;37.670;2023-04-25T11:55:13;19.20;1.00
34201;DHT22;20469;55.638;37.670;2023-04-25T11:57:42;19.10;1.00
34201;DHT22;20469;55.638;37.670;2023-04-25T12:00:20;19.00;1.00
34201;DHT22;20469;55.638;37.670;2023-04-25T12:02:53;19.20;1.00
34201;DHT22;20469;55.638;37.670;2023-04-25T12:05:25;19.50;1.00
34201;DHT22;20469;55.638;37.670;2023-04-25T12:08:19;19.30;1.00
34201;DHT22;20469;55.638;37.670;2023-04-25T12:10:46;21.50;1.00
34201;DHT22;20469;55.638;37.670;2023-04-25T12:13:24;21.30;1.00
34201;DHT22;20469;55.638;37.670;2023-04-25T12:15:54;20.20;1.00
34201;DHT22;20469;55.638;37.670;2023-04-25T12:18:25;19.90;1.00
34201;DHT22;20469;55.638;37.670;2023-04-25T12:20:55;19.20;1.00
34201;DHT22;20469;55.638;37.670;2023-04-25T12:23:26;19.60;1.00
34201;DHT22;20469;55.638;37.670;2023-04-25T12:25:54;20.50;1.00
34201;DHT22;20469;55.638;37.670;2023-04-25T12:28:23;21.00;1.00
34201;DHT22;20469;55.638;37.670;2023-04-25T12:30:58;20.40;1.00
34201;DHT22;20469;55.638;37.670;2023-04-25T12:33:27;19.50;1.00
34201;DHT22;20469;55.638;37.670;2023-04-25T12:35:55;19.30;1.00
34201;DHT22;20469;55.638;37.670;2023-04-25T12:38:29;19.80;1.00
34201;DHT22;20469;55.638;37.670;2023-04-25T12:40:58;19.90;1.00
34201;DHT22;20469;55.638;37.670;2023-04-25T12:43:25;19.50;1.00
34201;DHT22;20469;55.638;37.670;2023-04-25T12:45:54;19.40;1.00
34201;DHT22;20469;55.638;37.670;2023-04-25T12:48:22;20.30;1.00
34201;DHT22;20469;55.638;37.670;2023-04-25T12:50:50;20.30;1.00
34201;DHT22;20469;55.638;37.670;2023-04-25T12:53:19;20.50;1.00
34201;DHT22;20469;55.638;37.670;2023-04-25T12:55:47;21.00;1.00
34201;DHT22;20469;55.638;37.670;2023-04-25T12:58:16;20.20;1.00
34201;DHT22;20469;55.638;37.670;2023-04-25T13:00:43;19.30;1.00
34201;DHT22;20469;55.638;37.670;2023-04-25T13:03:11;19.40;1.00
34201;DHT22;20469;55.638;37.670;2023-04-25T13:05:39;19.40;1.00
34201;DHT22;20469;55.638;37.670;2023-04-25T13:08:07;19.40;1.00
34201;DHT22;20469;55.638;37.670;2023-04-25T13:10:34;19.50;1.00
34201;DHT22;20469;55.638;37.670;2023-04-25T13:13:03;19.30;1.00
34201;DHT22;20469;55.638;37.670;2023-04-25T13:15:30;19.50;1.00
34201;DHT22;20469;55.638;37.670;2023-04-25T13:17:57;19.80;1.00
34201;DHT22;20469;55.638;37.670;2023-04-25T13:20:25;20.60;1.00
34201;DHT22;20469;55.638;37.670;2023-04-25T13:22:52;21.00;1.00
34201;DHT22;20469;55.638;37.670;2023-04-25T13:25:19;21.40;1.00
34201;DHT22;20469;55.638;37.670;2023-04-25T13:27:46;22.60;1.00
34201;DHT22;20469;55.638;37.670;2023-04-25T13:30:14;22.30;1.00
34201;DHT22;20469;55.638;37.670;2023-04-25T13:32:41;22.50;1.00
34201;DHT22;20469;55.638;37.670;2023-04-25T13:35:10;21.60;1.00
34201;DHT22;20469;55.638;37.670;2023-04-25T13:37:38;20.50;1.00
34201;DHT22;20469;55.638;37.670;2023-04-25T13:40:10;21.30;1.00
34201;DHT22;20469;55.638;37.670;2023-04-25T13:42:38;21.80;1.00
34201;DHT22;20469;55.638;37.670;2023-04-25T13:45:07;22.20;1.00
34201;DHT22;20469;55.638;37.670;2023-04-25T13:47:34;22.70;1.00
34201;DHT22;20469;55.638;37.670;2023-04-25T13:50:03;23.00;1.00
34201;DHT22;20469;55.638;37.670;2023-04-25T13:52:32;21.00;1.00
34201;DHT22;20469;55.638;37.670;2023-04-25T13:55:00;21.00;1.00
34201;DHT22;20469;55.638;37.670;2023-04-25T13:57:31;22.10;1.00
34201;DHT22;20469;55.638;37.670;2023-04-25T13:59:58;22.50;1.00
34201;DHT22;20469;55.638;37.670;2023-04-25T14:02:26;22.80;1.00
34201;DHT22;20469;55.638;37.670;2023-04-25T14:04:53;23.30;1.00
34201;DHT22;20469;55.638;37.670;2023-04-25T14:07:20;23.40;1.00
34201;DHT22;20469;55.638;37.670;2023-04-25T14:09:48;23.30;1.00
34201;DHT22;20469;55.638;37.670;2023-04-25T14:12:16;22.40;1.00
34201;DHT22;20469;55.638;37.670;2023-04-25T14:14:43;22.40;1.00
34201;DHT22;20469;55.638;37.670;2023-04-25T14:17:11;22.20;1.00
34201;DHT22;20469;55.638;37.670;2023-04-25T14:19:38;21.30;1.00
34201;DHT22;20469;55.638;37.670;2023-04-25T14:22:10;20.30;1.00
34201;DHT22;20469;55.638;37.670;2023-04-25T14:24:37;20.20;1.00
34201;DHT22;20469;55.638;37.670;2023-04-25T14:27:05;20.20;1.00
34201;DHT22;20469;55.638;37.670;2023-04-25T14:29:32;19.70;1.00
34201;DHT22;20469;55.638;37.670;2023-04-25T14:31:59;19.60;1.00
34201;DHT22;20469;55.638;37.670;2023-04-25T14:34:27;19.40;1.00
34201;DHT22;20469;55.638;37.670;2023-04-25T14:36:54;19.30;1.00
34201;DHT22;20469;55.638;37.670;2023-04-25T14:39:21;19.00;1.00
34201;DHT22;20469;55.638;37.670;2023-04-25T14:41:48;19.10;1.00
34201;DHT22;20469;55.638;37.670;2023-04-25T14:44:15;18.90;1.00
34201;DHT22;20469;55.638;37.670;2023-04-25T14:46:43;18.80;1.00
34201;DHT22;20469;55.638;37.670;2023-04-25T14:49:10;19.10;1.00
34201;DHT22;20469;55.638;37.670;2023-04-25T14:51:37;19.30;1.00
34201;DHT22;20469;55.638;37.670;2023-04-25T14:54:04;18.90;1.00
34201;DHT22;20469;55.638;37.670;2023-04-25T14:56:32;19.00;1.00
34201;DHT22;20469;55.638;37.670;2023-04-25T14:58:59;18.90;1.00
34201;DHT22;20469;55.638;37.670;2023-04-25T15:01:26;19.10;1.00
34201;DHT22;20469;55.638;37.670;2023-04-25T15:03:53;19.00;1.00
34201;DHT22;20469;55.638;37.670;2023-04-25T15:06:21;18.90;1.00
34201;DHT22;20469;55.638;37.670;2023-04-25T15:08:48;18.90;1.00
34201;DHT22;20469;55.638;37.670;2023-04-25T15:11:15;18.80;1.00
34201;DHT22;20469;55.638;37.670;2023-04-25T15:13:43;18.60;1.00
34201;DHT22;20469;55.638;37.670;2023-04-25T15:16:10;18.60;1.00
34201;DHT22;20469;55.638;37.670;2023-04-25T15:18:38;18.60;1.00
34201;DHT22;20469;55.638;37.670;2023-04-25T15:21:05;18.80;1.00
34201;DHT22;20469;55.638;37.670;2023-04-25T15:23:33;18.70;1.00
34201;DHT22;20469;55.638;37.670;2023-04-25T15:26:00;18.90;1.00
34201;DHT22;20469;55.638;37.670;2023-04-25T15:28:27;18.90;1.00
34201;DHT22;20469;55.638;37.670;2023-04-25T15:30:54;18.60;1.00
34201;DHT22;20469;55.638;37.670;2023-04-25T15:33:22;18.60;1.00
34201;DHT22;20469;55.638;37.670;2023-04-25T15:35:49;18.70;1.00
34201;DHT22;20469;55.638;37.670;2023-04-25T15:38:17;18.70;1.00
34201;DHT22;20469;55.638;37.670;2023-04-25T15:40:44;18.60;1.00
34201;DHT22;20469;55.638;37.670;2023-04-25T15:43:12;18.70;1.00
34201;DHT22;20469;55.638;37.670;2023-04-25T15:45:41;18.60;1.00
34201;DHT22;20469;55.638;37.670;2023-04-25T15:48:09;18.70;1.00
34201;DHT22;20469;55.638;37.670;2023-04-25T15:50:36;18.70;1.00